Time;durP1;ratioP1;P1;durP2;ratioP2;P2;SDS_P1;SDS_P2;PMS_P1;PMS_P2;Temp;Humidity;BMP_temperature;BMP_pressure;BME280_temperature;BME280_humidity;BME280_pressure;Samples;Min_cycle;Max_cycle;Signal;HPM_P1;HPM_P2
2023/08/18 00:02:02;;;;;;;20.20;13.07;;;17.20;99.90;;;;;;5052749;28;20445;-63
2023/08/18 00:04:29;;;;;;;14.33;12.10;;;17.30;99.90;;;;;;5053809;28;20434;-63
2023/08/18 00:06:56;;;;;;;20.37;13.07;;;17.30;99.90;;;;;;5053208;28;20439;-63
2023/08/18 00:09:24;;;;;;;18.83;14.20;;;17.30;99.90;;;;;;5053414;28;20432;-63
2023/08/18 00:11:51;;;;;;;16.83;12.80;;;17.30;99.90;;;;;;5053876;28;20461;-63
2023/08/18 00:14:17;;;;;;;17.73;13.80;;;17.30;99.90;;;;;;5053478;28;20441;-62
2023/08/18 00:16:44;;;;;;;18.37;14.07;;;17.30;99.90;;;;;;5053480;28;20480;-63
2023/08/18 00:19:12;;;;;;;17.80;13.70;;;17.30;99.90;;;;;;5054611;28;20458;-63
2023/08/18 00:21:40;;;;;;;25.43;15.23;;;17.30;99.90;;;;;;5053748;28;20449;-63
2023/08/18 00:24:07;;;;;;;18.77;14.33;;;17.30;99.90;;;;;;5053960;28;20555;-63
2023/08/18 00:26:33;;;;;;;27.20;13.80;;;17.30;99.90;;;;;;5053973;28;20433;-64
2023/08/18 00:29:00;;;;;;;16.53;13.53;;;17.30;99.90;;;;;;5058672;28;20442;-63
2023/08/18 00:31:27;;;;;;;19.33;13.83;;;17.30;99.90;;;;;;5058007;28;20930;-62
2023/08/18 00:33:54;;;;;;;17.40;13.20;;;17.30;99.90;;;;;;5057041;28;20456;-63
2023/08/18 00:36:22;;;;;;;16.00;13.93;;;17.30;99.90;;;;;;5057029;28;20443;-63
2023/08/18 00:38:49;;;;;;;14.70;11.97;;;17.30;99.90;;;;;;5057091;28;20440;-64
2023/08/18 00:41:15;;;;;;;14.90;13.27;;;17.40;99.90;;;;;;5056808;28;20440;-63
2023/08/18 00:43:42;;;;;;;20.87;14.10;;;17.40;99.90;;;;;;5056968;28;21005;-63
2023/08/18 00:46:10;;;;;;;17.63;12.10;;;17.40;99.90;;;;;;5057215;28;20442;-63
2023/08/18 00:48:38;;;;;;;17.53;13.20;;;17.40;99.90;;;;;;5057565;28;20499;-62
2023/08/18 00:51:05;;;;;;;18.40;12.73;;;17.40;99.90;;;;;;5058194;28;20452;-62
2023/08/18 00:53:33;;;;;;;16.00;13.87;;;17.40;99.90;;;;;;5056518;28;20515;-62
2023/08/18 00:56:01;;;;;;;18.33;13.67;;;17.40;99.90;;;;;;5056833;28;20447;-62
2023/08/18 00:58:29;;;;;;;21.43;13.73;;;17.40;99.90;;;;;;5057134;28;20564;-62
2023/08/18 01:00:56;;;;;;;19.07;14.53;;;17.40;99.90;;;;;;5056494;28;20439;-63
2023/08/18 01:03:22;;;;;;;18.00;14.33;;;17.40;99.90;;;;;;5056420;28;20496;-63
2023/08/18 01:05:49;;;;;;;16.37;13.40;;;17.40;99.90;;;;;;5056597;28;20443;-63
2023/08/18 01:08:16;;;;;;;17.57;13.87;;;17.40;99.90;;;;;;5056595;28;20460;-63
2023/08/18 01:10:51;;;;;;;15.63;12.93;;;17.40;99.90;;;;;;5057114;28;20442;-63
2023/08/18 01:13:26;;;;;;;17.57;14.13;;;17.40;99.90;;;;;;5056593;28;20464;-64
2023/08/18 01:15:56;;;;;;;19.33;13.00;;;17.40;99.90;;;;;;5057099;28;20431;-62
2023/08/18 01:18:25;;;;;;;18.03;12.33;;;17.40;99.90;;;;;;5056668;28;20460;-63
2023/08/18 01:20:54;;;;;;;16.83;12.47;;;17.40;99.90;;;;;;5056347;28;20441;-63
2023/08/18 01:23:22;;;;;;;16.70;13.13;;;17.40;99.90;;;;;;5055701;28;20472;-63
2023/08/18 01:25:49;;;;;;;16.00;12.73;;;17.40;99.90;;;;;;5056081;28;20792;-63
2023/08/18 01:28:16;;;;;;;16.27;12.97;;;17.40;99.90;;;;;;5056792;28;20432;-63
2023/08/18 01:30:48;;;;;;;16.40;13.27;;;17.40;99.90;;;;;;5056430;28;20444;-63
2023/08/18 01:33:21;;;;;;;15.93;13.83;;;17.40;99.90;;;;;;5056587;28;20458;-63
2023/08/18 01:35:49;;;;;;;16.93;13.53;;;17.40;99.90;;;;;;5057953;28;20433;-63
2023/08/18 01:38:17;;;;;;;14.70;12.80;;;17.40;99.90;;;;;;5057585;28;20587;-63
2023/08/18 01:40:48;;;;;;;15.70;13.30;;;17.30;99.90;;;;;;5056975;28;20970;-63
2023/08/18 01:43:15;;;;;;;19.43;15.03;;;17.30;99.90;;;;;;5056372;28;20453;-63
2023/08/18 01:45:42;;;;;;;18.93;14.50;;;17.30;99.90;;;;;;5057707;28;20448;-63
2023/08/18 01:48:09;;;;;;;22.33;14.30;;;17.30;99.90;;;;;;5057218;28;20436;-62
2023/08/18 01:50:36;;;;;;;22.50;15.00;;;17.20;99.90;;;;;;5056394;28;20447;-63
2023/08/18 01:53:03;;;;;;;19.30;13.90;;;17.20;99.90;;;;;;5056157;28;20460;-63
2023/08/18 01:55:30;;;;;;;22.03;14.93;;;17.20;99.90;;;;;;5055761;28;20521;-63
2023/08/18 01:57:58;;;;;;;24.50;16.33;;;17.20;99.90;;;;;;5056197;28;20486;-63
2023/08/18 02:00:24;;;;;;;21.47;16.93;;;17.20;99.90;;;;;;5057457;28;20479;-63
2023/08/18 02:02:51;;;;;;;19.97;15.20;;;17.20;99.90;;;;;;5056279;28;20491;-63
2023/08/18 02:05:18;;;;;;;19.60;15.70;;;17.10;99.90;;;;;;5057066;28;20440;-63
2023/08/18 02:07:45;;;;;;;23.13;15.70;;;17.20;99.90;;;;;;5056698;28;20433;-63
2023/08/18 02:10:12;;;;;;;21.63;15.03;;;17.10;99.90;;;;;;5055745;28;20811;-63
2023/08/18 02:12:38;;;;;;;23.50;16.53;;;17.10;99.90;;;;;;5055664;28;20494;-63
2023/08/18 02:15:08;;;;;;;19.77;15.17;;;17.20;99.90;;;;;;5055422;28;20438;-63
2023/08/18 02:17:35;;;;;;;20.77;14.67;;;17.20;99.90;;;;;;5055526;28;20473;-62
2023/08/18 02:20:02;;;;;;;25.10;17.13;;;17.20;99.90;;;;;;5055256;28;20829;-63
2023/08/18 02:22:29;;;;;;;22.50;16.43;;;17.20;99.90;;;;;;5055341;28;20471;-62
2023/08/18 02:24:56;;;;;;;27.37;17.30;;;17.20;99.90;;;;;;5055088;28;20937;-63
2023/08/18 02:27:22;;;;;;;22.30;15.47;;;17.20;99.90;;;;;;5055415;28;20444;-64
2023/08/18 02:29:49;;;;;;;27.53;15.57;;;17.20;99.90;;;;;;5055076;28;20447;-63
2023/08/18 02:32:18;;;;;;;31.83;17.47;;;17.20;99.90;;;;;;5055240;28;20316;-62
2023/08/18 02:34:45;;;;;;;29.57;16.73;;;17.20;99.90;;;;;;5055417;28;20457;-63
2023/08/18 02:37:12;;;;;;;28.23;17.97;;;17.20;99.90;;;;;;5055265;28;20479;-63
2023/08/18 02:39:39;;;;;;;22.50;16.30;;;17.20;99.90;;;;;;5056023;28;20453;-63
2023/08/18 02:42:06;;;;;;;30.23;17.80;;;17.20;99.90;;;;;;5057154;28;20447;-64
2023/08/18 02:44:32;;;;;;;22.73;16.70;;;17.20;99.90;;;;;;5058633;28;20439;-63
2023/08/18 02:46:59;;;;;;;30.40;18.27;;;17.20;99.90;;;;;;5057687;28;20442;-62
2023/08/18 02:49:27;;;;;;;33.77;18.30;;;17.20;99.90;;;;;;5057930;28;20527;-64
2023/08/18 02:51:54;;;;;;;29.87;18.33;;;17.20;99.90;;;;;;5058886;28;20447;-64
2023/08/18 02:54:21;;;;;;;26.73;17.30;;;17.20;99.90;;;;;;5058394;28;20440;-63
2023/08/18 02:56:48;;;;;;;29.47;18.27;;;17.20;99.90;;;;;;5059262;28;20443;-63
2023/08/18 02:59:17;;;;;;;30.17;17.67;;;17.20;99.90;;;;;;5060867;28;20820;-64
2023/08/18 03:01:44;;;;;;;32.33;17.93;;;17.20;99.90;;;;;;5057839;28;20486;-63
2023/08/18 03:04:14;;;;;;;30.03;17.73;;;17.20;99.90;;;;;;5054697;28;20483;-63
2023/08/18 03:06:42;;;;;;;37.33;19.67;;;17.20;99.90;;;;;;5054680;28;20444;-62
2023/08/18 03:09:09;;;;;;;37.77;18.50;;;17.20;99.90;;;;;;5054383;28;20442;-62
2023/08/18 03:11:35;;;;;;;28.63;17.67;;;17.10;99.90;;;;;;5054631;28;20922;-62
2023/08/18 03:14:03;;;;;;;37.80;19.53;;;17.10;99.90;;;;;;5054502;28;20487;-63
2023/08/18 03:16:30;;;;;;;28.57;18.20;;;17.10;99.90;;;;;;5054159;28;20448;-63
2023/08/18 03:18:56;;;;;;;33.23;19.40;;;17.10;99.90;;;;;;5054143;28;20479;-63
2023/08/18 03:21:23;;;;;;;30.47;18.30;;;17.00;99.90;;;;;;5054133;28;21019;-63
2023/08/18 03:23:51;;;;;;;29.20;17.40;;;17.00;99.90;;;;;;5053475;28;21010;-63
2023/08/18 03:26:18;;;;;;;23.90;16.70;;;17.00;99.90;;;;;;5053574;28;20454;-63
2023/08/18 03:28:45;;;;;;;23.80;17.17;;;17.00;99.90;;;;;;5053794;28;20436;-63
2023/08/18 03:31:11;;;;;;;30.10;17.17;;;17.00;99.90;;;;;;5054027;28;20444;-64
2023/08/18 03:33:38;;;;;;;23.63;16.33;;;17.00;99.90;;;;;;5053974;28;20459;-63
2023/08/18 03:36:05;;;;;;;22.40;15.27;;;17.00;99.90;;;;;;5053476;28;20472;-63
2023/08/18 03:38:32;;;;;;;21.23;15.57;;;17.00;99.90;;;;;;5053400;28;20854;-63
2023/08/18 03:41:01;;;;;;;19.07;15.60;;;17.00;99.90;;;;;;5053698;28;20450;-63
2023/08/18 03:43:28;;;;;;;19.60;15.10;;;17.00;99.90;;;;;;5053624;28;20472;-62
2023/08/18 03:45:58;;;;;;;20.53;14.93;;;17.00;99.90;;;;;;5053625;28;20451;-62
2023/08/18 03:48:25;;;;;;;18.53;14.17;;;17.00;99.90;;;;;;5054022;28;20432;-62
2023/08/18 03:50:51;;;;;;;17.47;14.87;;;17.00;99.90;;;;;;5053618;28;20440;-63
2023/08/18 03:53:21;;;;;;;20.13;13.40;;;17.00;99.90;;;;;;5053379;28;20471;-62
2023/08/18 03:55:50;;;;;;;18.50;14.27;;;17.00;99.90;;;;;;5053769;28;20928;-63
2023/08/18 03:58:19;;;;;;;15.93;13.17;;;17.00;99.90;;;;;;5053138;28;20993;-63
2023/08/18 04:00:45;;;;;;;19.57;13.27;;;17.00;99.90;;;;;;5053405;28;20443;-62
2023/08/18 04:03:12;;;;;;;16.47;12.60;;;17.00;99.90;;;;;;5053489;28;20463;-63
2023/08/18 04:05:45;;;;;;;16.13;12.90;;;17.00;99.90;;;;;;5053104;28;20436;-63
2023/08/18 04:08:12;;;;;;;15.43;13.23;;;17.00;99.90;;;;;;5053653;28;20418;-63
2023/08/18 04:12:08;;;;;;;15.80;12.57;;;17.00;99.90;;;;;;5092107;28;20559;-62
2023/08/18 04:14:35;;;;;;;17.77;13.13;;;17.00;99.90;;;;;;5091086;28;20450;-64
2023/08/18 04:17:01;;;;;;;14.33;12.23;;;17.00;99.90;;;;;;5091758;28;20447;-63
2023/08/18 04:19:28;;;;;;;17.50;13.30;;;17.00;99.90;;;;;;5090839;28;20966;-64
2023/08/18 04:21:55;;;;;;;14.30;12.80;;;17.00;99.90;;;;;;5091023;28;20440;-64
2023/08/18 04:24:22;;;;;;;15.90;12.70;;;17.00;99.90;;;;;;5091606;28;20467;-64
2023/08/18 04:26:48;;;;;;;22.90;13.43;;;17.00;99.90;;;;;;5090732;28;20442;-64
2023/08/18 04:29:16;;;;;;;19.40;14.87;;;17.00;99.90;;;;;;5090463;28;20435;-64
2023/08/18 04:31:43;;;;;;;18.40;13.97;;;17.10;99.90;;;;;;5091890;28;20479;-64
2023/08/18 04:34:10;;;;;;;20.43;13.93;;;17.10;99.90;;;;;;5090784;28;20501;-64
2023/08/18 04:36:37;;;;;;;17.97;14.20;;;17.10;99.90;;;;;;5090579;28;20843;-64
2023/08/18 04:39:04;;;;;;;16.70;14.50;;;17.20;99.90;;;;;;5090389;28;20451;-63
2023/08/18 04:41:32;;;;;;;17.10;13.93;;;17.20;99.90;;;;;;5090892;28;20442;-64
2023/08/18 04:43:59;;;;;;;16.93;14.30;;;17.20;99.90;;;;;;5091463;28;20538;-64
2023/08/18 04:46:27;;;;;;;19.57;14.60;;;17.20;99.90;;;;;;5090809;28;20443;-63
2023/08/18 04:48:54;;;;;;;20.90;15.40;;;17.30;99.90;;;;;;5090383;28;20445;-62
2023/08/18 04:51:21;;;;;;;20.30;16.83;;;17.30;99.90;;;;;;5090126;28;20472;-63
2023/08/18 04:53:48;;;;;;;17.20;15.10;;;17.40;99.90;;;;;;5090581;28;20816;-64
2023/08/18 04:56:15;;;;;;;18.63;15.77;;;17.40;99.90;;;;;;5090077;28;20491;-64
2023/08/18 04:58:41;;;;;;;23.43;16.30;;;17.40;99.90;;;;;;5089807;28;20443;-64
2023/08/18 05:01:08;;;;;;;17.50;15.57;;;17.50;99.90;;;;;;5090111;28;20438;-65
2023/08/18 05:03:37;;;;;;;18.30;13.70;;;17.50;99.90;;;;;;5091768;28;20816;-63
2023/08/18 05:06:08;;;;;;;15.87;14.20;;;17.50;99.90;;;;;;5099860;22;21029;-60
2023/08/18 05:08:35;;;;;;;15.37;13.77;;;17.60;99.90;;;;;;5069233;28;20496;-61
2023/08/18 05:11:06;;;;;;;17.00;14.07;;;17.60;99.90;;;;;;5068892;28;20485;-62
2023/08/18 05:13:34;;;;;;;21.30;14.63;;;17.60;99.90;;;;;;5069410;28;20449;-61
2023/08/18 05:16:01;;;;;;;22.80;13.37;;;17.70;99.90;;;;;;5069137;28;20464;-61
2023/08/18 05:18:29;;;;;;;15.00;13.40;;;17.70;99.90;;;;;;5069286;28;20861;-61
2023/08/18 05:20:57;;;;;;;16.40;13.60;;;17.70;99.90;;;;;;5068716;28;21034;-60
2023/08/18 05:23:24;;;;;;;13.97;12.53;;;17.70;99.90;;;;;;5056613;28;20451;-61
2023/08/18 05:25:54;;;;;;;15.33;13.70;;;17.80;99.90;;;;;;5055761;28;20495;-62
2023/08/18 05:28:22;;;;;;;17.27;14.40;;;17.80;99.90;;;;;;5055374;28;20430;-62
2023/08/18 05:30:50;;;;;;;14.97;12.10;;;17.90;99.90;;;;;;5055656;28;20487;-60
2023/08/18 05:33:17;;;;;;;14.70;13.20;;;17.90;99.90;;;;;;5055666;28;20446;-61
2023/08/18 05:35:44;;;;;;;18.07;13.40;;;18.00;99.90;;;;;;5055836;28;20475;-62
2023/08/18 05:38:12;;;;;;;13.90;12.40;;;18.00;99.90;;;;;;5055330;28;20444;-62
2023/08/18 05:40:42;;;;;;;16.27;13.03;;;18.00;99.90;;;;;;5055322;28;20439;-62
2023/08/18 05:43:09;;;;;;;15.00;12.47;;;18.00;99.90;;;;;;5055242;28;20496;-63
2023/08/18 05:45:37;;;;;;;16.07;14.03;;;18.10;99.90;;;;;;5055113;28;20474;-64
2023/08/18 05:48:04;;;;;;;14.63;13.13;;;18.10;99.90;;;;;;5054621;28;20443;-63
2023/08/18 05:50:32;;;;;;;16.00;12.60;;;18.20;99.90;;;;;;5055683;28;20475;-63
2023/08/18 05:52:59;;;;;;;20.33;13.20;;;18.30;99.90;;;;;;5054788;28;20949;-62
2023/08/18 05:55:27;;;;;;;15.07;13.47;;;18.40;99.90;;;;;;5054521;28;20471;-63
2023/08/18 05:57:55;;;;;;;16.17;13.30;;;18.50;99.90;;;;;;5055039;28;20452;-62
2023/08/18 06:00:22;;;;;;;21.03;12.60;;;18.60;99.90;;;;;;5054957;28;20554;-61
2023/08/18 06:02:48;;;;;;;14.50;12.33;;;18.70;99.90;;;;;;5055195;28;20439;-63
2023/08/18 06:05:15;;;;;;;15.07;13.57;;;18.80;99.90;;;;;;5055235;28;20474;-64
2023/08/18 06:07:42;;;;;;;16.93;13.50;;;18.80;99.90;;;;;;5057585;28;20447;-63
2023/08/18 06:10:11;;;;;;;15.43;12.50;;;18.90;99.90;;;;;;5057043;28;20451;-63
2023/08/18 06:12:39;;;;;;;14.90;13.07;;;18.90;99.90;;;;;;5056943;28;20479;-61
2023/08/18 06:15:08;;;;;;;15.17;13.57;;;19.00;99.90;;;;;;5056647;28;20460;-62
2023/08/18 06:17:35;;;;;;;13.80;12.40;;;19.00;99.90;;;;;;5058135;28;20444;-62
2023/08/18 06:20:02;;;;;;;14.57;11.67;;;19.10;99.90;;;;;;5057849;28;20443;-62
2023/08/18 06:22:31;;;;;;;15.90;13.33;;;19.10;99.90;;;;;;5058847;28;20440;-62
2023/08/18 06:24:58;;;;;;;15.03;12.70;;;19.30;99.90;;;;;;5057780;28;20509;-63
2023/08/18 06:27:24;;;;;;;17.03;12.10;;;19.40;99.90;;;;;;5055954;28;20435;-62
2023/08/18 06:29:55;;;;;;;13.10;11.80;;;19.40;99.90;;;;;;5055958;28;20440;-63
2023/08/18 06:32:22;;;;;;;16.17;13.43;;;19.50;99.90;;;;;;5055854;28;20686;-63
2023/08/18 06:34:48;;;;;;;15.43;13.47;;;19.50;99.90;;;;;;5054397;28;20456;-61
2023/08/18 06:37:15;;;;;;;17.10;13.20;;;19.50;99.90;;;;;;5054823;28;20440;-63
2023/08/18 06:39:42;;;;;;;15.50;12.90;;;19.50;99.90;;;;;;5054097;28;20444;-63
2023/08/18 06:42:09;;;;;;;16.43;13.60;;;19.60;99.90;;;;;;5054208;28;20523;-62
2023/08/18 06:44:35;;;;;;;15.00;13.47;;;19.60;99.90;;;;;;5053959;28;20448;-62
2023/08/18 06:47:04;;;;;;;15.17;13.60;;;19.70;99.90;;;;;;5053664;28;20562;-62
2023/08/18 06:49:31;;;;;;;17.20;12.50;;;19.80;99.90;;;;;;5053905;28;20444;-63
2023/08/18 06:51:57;;;;;;;17.10;12.73;;;20.00;99.90;;;;;;5053771;28;20482;-63
2023/08/18 06:54:24;;;;;;;14.60;11.33;;;20.20;99.90;;;;;;5053913;28;20444;-63
2023/08/18 06:56:51;;;;;;;13.80;12.30;;;20.30;99.90;;;;;;5054287;28;20444;-63
2023/08/18 06:59:18;;;;;;;16.97;12.10;;;20.40;99.90;;;;;;5053852;28;20491;-64
2023/08/18 07:01:45;;;;;;;12.53;11.30;;;20.50;99.90;;;;;;5053838;28;20447;-63
2023/08/18 07:04:13;;;;;;;15.80;13.23;;;20.60;99.90;;;;;;5053628;28;20443;-63
2023/08/18 07:06:44;;;;;;;12.87;11.53;;;20.60;99.90;;;;;;5053286;28;20474;-62
2023/08/18 07:09:12;;;;;;;13.37;11.00;;;20.60;99.90;;;;;;5053839;28;20549;-63
2023/08/18 07:11:38;;;;;;;14.73;12.30;;;20.80;99.90;;;;;;5053489;28;20567;-63
2023/08/18 07:14:05;;;;;;;12.43;10.63;;;20.90;99.90;;;;;;5053424;28;20483;-62
2023/08/18 07:16:32;;;;;;;10.73;9.07;;;21.00;99.90;;;;;;5053311;28;20464;-62
2023/08/18 07:18:59;;;;;;;10.90;9.80;;;21.20;99.90;;;;;;5056731;28;20440;-62
2023/08/18 07:21:27;;;;;;;15.10;12.83;;;21.40;99.90;;;;;;5054168;28;20792;-60
2023/08/18 07:23:54;;;;;;;11.60;10.30;;;21.50;99.90;;;;;;5053268;28;21003;-62
2023/08/18 07:26:21;;;;;;;10.87;9.77;;;21.50;99.90;;;;;;5054310;28;20594;-62
2023/08/18 07:28:47;;;;;;;11.30;10.20;;;21.50;99.90;;;;;;5053631;28;20444;-63
2023/08/18 07:31:14;;;;;;;10.80;9.80;;;21.50;99.90;;;;;;5053182;28;21023;-63
2023/08/18 07:33:41;;;;;;;11.60;10.40;;;21.50;99.90;;;;;;5053607;28;20448;-63
2023/08/18 07:36:08;;;;;;;11.87;10.67;;;21.60;99.90;;;;;;5053240;28;20554;-63
2023/08/18 07:38:36;;;;;;;12.63;9.90;;;21.70;99.90;;;;;;5052794;28;21007;-61
2023/08/18 07:41:03;;;;;;;12.27;10.23;;;21.80;99.90;;;;;;5053036;28;20438;-62
2023/08/18 07:43:30;;;;;;;13.60;9.50;;;22.00;99.90;;;;;;5042090;28;20471;-62
2023/08/18 07:45:57;;;;;;;11.60;10.43;;;22.20;99.90;;;;;;5049649;28;21326;-62
2023/08/18 07:48:24;;;;;;;11.43;10.30;;;22.50;99.90;;;;;;5052693;28;20452;-62
2023/08/18 07:50:52;;;;;;;11.33;10.13;;;22.60;99.90;;;;;;5052789;28;20466;-62
2023/08/18 07:53:18;;;;;;;12.90;10.83;;;22.80;99.90;;;;;;5053545;28;20501;-64
2023/08/18 07:55:47;;;;;;;10.30;9.40;;;23.10;99.90;;;;;;5052326;28;20949;-62
2023/08/18 07:58:13;;;;;;;11.10;9.70;;;23.20;99.90;;;;;;5053748;28;20494;-62
2023/08/18 08:00:40;;;;;;;11.00;10.00;;;23.40;99.90;;;;;;5052837;28;20952;-62
2023/08/18 08:03:07;;;;;;;10.30;9.30;;;23.50;99.90;;;;;;5054266;28;20510;-62
2023/08/18 08:05:34;;;;;;;10.60;9.60;;;23.60;99.90;;;;;;5052945;28;20480;-63
2023/08/18 08:08:01;;;;;;;11.37;10.37;;;23.50;99.90;;;;;;5053034;28;20968;-62
2023/08/18 08:10:28;;;;;;;10.97;9.97;;;23.50;99.90;;;;;;5052787;28;20448;-62
2023/08/18 08:12:56;;;;;;;10.73;9.73;;;23.50;99.90;;;;;;5052498;28;20486;-62
2023/08/18 08:15:23;;;;;;;10.30;9.40;;;23.60;99.90;;;;;;5052417;28;20472;-62
2023/08/18 08:17:51;;;;;;;11.20;10.10;;;23.90;99.90;;;;;;5052557;28;20897;-62
2023/08/18 08:20:17;;;;;;;10.33;9.33;;;24.10;99.90;;;;;;5053079;28;20446;-61
2023/08/18 08:22:46;;;;;;;11.30;9.77;;;24.10;99.90;;;;;;5053004;28;20432;-63
2023/08/18 08:25:12;;;;;;;9.77;8.97;;;24.10;99.90;;;;;;5052997;28;20550;-61
2023/08/18 08:27:39;;;;;;;9.97;8.97;;;24.10;99.90;;;;;;5052700;28;20443;-61
2023/08/18 08:30:11;;;;;;;9.97;8.97;;;24.20;99.90;;;;;;5052987;28;20446;-62
2023/08/18 08:32:37;;;;;;;11.30;10.30;;;24.20;99.90;;;;;;5052838;28;20968;-62
2023/08/18 08:35:07;;;;;;;11.73;10.63;;;24.30;99.90;;;;;;5052361;28;20846;-62
2023/08/18 08:37:34;;;;;;;10.73;9.73;;;24.30;99.90;;;;;;5052803;28;20440;-63
2023/08/18 08:40:00;;;;;;;10.63;9.63;;;24.30;99.90;;;;;;5052659;28;20440;-63
2023/08/18 08:42:27;;;;;;;12.27;10.50;;;24.20;99.90;;;;;;5053066;28;20436;-62
2023/08/18 08:44:54;;;;;;;10.97;10.00;;;24.20;99.90;;;;;;5053865;28;20531;-61
2023/08/18 08:47:22;;;;;;;11.43;10.43;;;24.30;99.90;;;;;;5053702;28;20551;-61
2023/08/18 08:49:54;;;;;;;9.97;8.97;;;24.50;99.90;;;;;;5057212;28;20444;-64
2023/08/18 08:52:23;;;;;;;10.00;9.10;;;24.50;99.90;;;;;;5059469;28;20531;-62
2023/08/18 08:54:56;;;;;;;11.33;10.00;;;24.60;99.90;;;;;;5059026;28;20491;-63
2023/08/18 08:57:23;;;;;;;10.30;9.43;;;24.60;99.90;;;;;;5060189;28;20445;-63
2023/08/18 08:59:51;;;;;;;10.43;9.37;;;24.60;99.90;;;;;;5063127;28;20960;-62
2023/08/18 09:02:17;;;;;;;10.30;9.30;;;24.70;99.90;;;;;;5061141;28;20436;-64
2023/08/18 09:04:46;;;;;;;9.60;8.80;;;24.80;99.90;;;;;;5056644;28;20460;-63
2023/08/18 09:07:13;;;;;;;11.50;10.30;;;24.80;99.90;;;;;;5055722;28;20460;-63
2023/08/18 09:09:41;;;;;;;11.33;8.50;;;24.90;99.90;;;;;;5056172;28;20444;-64
2023/08/18 09:12:08;;;;;;;11.10;10.00;;;24.90;99.90;;;;;;5056014;28;20482;-63
2023/08/18 09:14:36;;;;;;;11.60;10.60;;;24.90;99.90;;;;;;5056725;28;20451;-64
2023/08/18 09:17:03;;;;;;;10.53;9.50;;;25.00;99.90;;;;;;5055741;28;20440;-62
2023/08/18 09:19:30;;;;;;;11.17;10.03;;;25.00;99.90;;;;;;5056164;28;20446;-61
2023/08/18 09:22:00;;;;;;;17.00;10.80;;;25.10;99.90;;;;;;5056590;28;20447;-63
2023/08/18 09:24:29;;;;;;;12.10;10.87;;;25.20;99.90;;;;;;5056098;28;20822;-63
2023/08/18 09:27:05;;;;;;;10.70;9.70;;;25.30;99.90;;;;;;5055911;28;20811;-62
2023/08/18 09:29:32;;;;;;;12.97;11.67;;;25.30;99.90;;;;;;5056286;28;20428;-63
2023/08/18 09:32:01;;;;;;;15.93;14.23;;;25.50;99.90;;;;;;5056531;28;20515;-62
2023/08/18 09:34:30;;;;;;;16.23;14.33;;;25.60;99.90;;;;;;5055900;28;20448;-64
2023/08/18 09:36:58;;;;;;;14.07;12.63;;;25.70;99.90;;;;;;5055970;28;20459;-62
2023/08/18 09:39:26;;;;;;;14.47;13.17;;;25.70;99.90;;;;;;5055602;28;20439;-61
2023/08/18 09:41:54;;;;;;;14.20;12.70;;;25.70;99.90;;;;;;5055526;28;20894;-62
2023/08/18 09:44:22;;;;;;;15.13;13.53;;;25.80;99.90;;;;;;5055363;28;20455;-62
2023/08/18 09:46:51;;;;;;;14.90;13.50;;;25.80;99.90;;;;;;5056612;28;20500;-60
2023/08/18 09:49:19;;;;;;;15.60;14.00;;;25.80;99.90;;;;;;5056517;28;20448;-63
2023/08/18 09:51:47;;;;;;;14.80;13.30;;;25.90;99.90;;;;;;5056580;28;20479;-62
2023/08/18 09:54:24;;;;;;;14.53;13.03;;;26.00;99.80;;;;;;5055881;28;20444;-64
2023/08/18 09:56:55;;;;;;;15.03;13.00;;;26.10;99.40;;;;;;5055856;28;20424;-63
2023/08/18 09:59:29;;;;;;;15.97;14.10;;;26.20;99.30;;;;;;5055972;28;20424;-63
2023/08/18 10:01:56;;;;;;;13.80;12.37;;;26.20;99.20;;;;;;5055564;28;20441;-62
2023/08/18 10:04:24;;;;;;;14.70;13.40;;;26.20;98.80;;;;;;5055288;28;20447;-63
2023/08/18 10:06:52;;;;;;;15.10;13.60;;;26.30;98.90;;;;;;5055217;28;20459;-63
2023/08/18 10:09:22;;;;;;;21.83;13.87;;;26.40;98.60;;;;;;5055304;28;20443;-62
2023/08/18 10:11:49;;;;;;;14.20;12.80;;;26.50;98.30;;;;;;5055552;28;20450;-63
2023/08/18 10:14:17;;;;;;;14.17;12.87;;;26.50;98.10;;;;;;5055138;28;20634;-63
2023/08/18 10:16:45;;;;;;;14.43;13.03;;;26.60;97.80;;;;;;5055062;28;20470;-62
2023/08/18 10:19:12;;;;;;;15.57;14.07;;;26.70;97.90;;;;;;5054986;28;20451;-63
2023/08/18 10:21:39;;;;;;;15.77;14.30;;;26.80;97.60;;;;;;5054427;28;20934;-63
2023/08/18 10:24:07;;;;;;;16.00;14.40;;;26.90;97.20;;;;;;5055016;28;20536;-64
2023/08/18 10:26:36;;;;;;;15.50;14.10;;;27.00;96.50;;;;;;5054950;28;20464;-63
2023/08/18 10:29:15;;;;;;;18.63;14.73;;;27.00;96.20;;;;;;5054776;28;20447;-64
2023/08/18 10:31:47;;;;;;;16.60;14.83;;;27.00;96.40;;;;;;5054639;28;20435;-63
2023/08/18 10:34:21;;;;;;;16.93;15.23;;;27.20;96.10;;;;;;5054741;28;20428;-63
2023/08/18 10:36:48;;;;;;;16.37;14.47;;;27.40;95.50;;;;;;5055337;28;20861;-63
2023/08/18 10:39:24;;;;;;;16.10;14.70;;;27.50;94.90;;;;;;5054551;28;20815;-62
2023/08/18 10:42:09;;;;;;;15.10;12.20;;;27.60;94.30;;;;;;5054660;28;20443;-64
2023/08/18 10:44:36;;;;;;;15.87;14.37;;;27.60;93.90;;;;;;5054456;28;20842;-63
2023/08/18 10:47:04;;;;;;;13.30;12.20;;;27.70;93.40;;;;;;5054408;28;20454;-61
2023/08/18 10:49:31;;;;;;;14.77;13.40;;;27.80;93.30;;;;;;5054419;28;20448;-63
2023/08/18 10:51:58;;;;;;;14.90;13.50;;;27.90;92.90;;;;;;5054038;28;20998;-63
2023/08/18 10:54:25;;;;;;;14.73;13.43;;;27.90;92.40;;;;;;5054845;28;20455;-63
2023/08/18 10:56:52;;;;;;;13.23;12.17;;;27.90;92.00;;;;;;5054961;28;20440;-61
2023/08/18 10:59:20;;;;;;;13.33;11.97;;;27.90;92.00;;;;;;5054847;28;20798;-63
2023/08/18 11:01:47;;;;;;;12.60;11.30;;;27.80;92.00;;;;;;5055341;28;20441;-64
2023/08/18 11:04:15;;;;;;;13.00;11.87;;;27.80;92.20;;;;;;5055403;28;20444;-63
2023/08/18 11:06:45;;;;;;;11.37;10.47;;;28.00;92.10;;;;;;5055399;28;20993;-64
2023/08/18 11:09:12;;;;;;;11.20;10.17;;;28.20;91.70;;;;;;5056197;28;20531;-63
2023/08/18 11:14:14;;;;;;;12.03;10.87;;;28.30;90.70;;;;;;5053359;28;20459;-61
2023/08/18 11:16:42;;;;;;;11.97;11.03;;;28.30;90.50;;;;;;5054679;28;20444;-61
2023/08/18 11:19:09;;;;;;;12.30;11.23;;;28.40;90.40;;;;;;5054912;28;20825;-61
2023/08/18 11:21:36;;;;;;;11.53;10.43;;;28.40;90.20;;;;;;5053681;28;20811;-60
2023/08/18 11:24:04;;;;;;;10.53;9.70;;;28.40;90.20;;;;;;5054378;28;20447;-62
2023/08/18 11:26:36;;;;;;;11.13;9.53;;;28.50;90.00;;;;;;5054134;28;20930;-60
2023/08/18 11:29:04;;;;;;;11.20;10.20;;;28.70;89.70;;;;;;5055287;28;20904;-60
2023/08/18 11:31:31;;;;;;;11.70;10.80;;;28.80;88.40;;;;;;5054062;28;20941;-62
2023/08/18 11:34:00;;;;;;;12.27;11.17;;;28.80;88.00;;;;;;5053620;28;20480;-61
2023/08/18 11:36:30;;;;;;;11.57;10.47;;;28.80;88.00;;;;;;5054438;28;20623;-61
2023/08/18 11:39:01;;;;;;;12.00;10.90;;;28.90;87.00;;;;;;5054103;28;20440;-60
2023/08/18 11:41:27;;;;;;;11.27;10.10;;;28.90;86.90;;;;;;5054344;28;20428;-62
2023/08/18 11:43:55;;;;;;;11.93;10.83;;;29.10;86.50;;;;;;5054068;28;20464;-61
2023/08/18 11:46:22;;;;;;;12.67;11.53;;;29.30;85.60;;;;;;5054043;28;20872;-61
2023/08/18 11:48:49;;;;;;;14.53;13.33;;;29.40;84.20;;;;;;5054127;28;20925;-61
2023/08/18 11:51:17;;;;;;;13.37;12.20;;;29.50;83.00;;;;;;5053792;28;20444;-63
2023/08/18 11:53:44;;;;;;;13.63;12.30;;;29.70;81.40;;;;;;5053941;28;20487;-61
2023/08/18 11:56:11;;;;;;;11.93;10.93;;;30.30;79.00;;;;;;5053507;28;20460;-61
2023/08/18 11:58:38;;;;;;;13.50;12.20;;;30.80;76.10;;;;;;5053580;28;20470;-60
2023/08/18 12:01:05;;;;;;;12.80;11.70;;;31.20;73.70;;;;;;5054315;28;20538;-60
2023/08/18 12:03:32;;;;;;;12.13;11.00;;;31.70;71.40;;;;;;5053227;28;20511;-61
2023/08/18 12:06:00;;;;;;;12.33;11.30;;;32.00;69.80;;;;;;5053506;28;20853;-65
2023/08/18 12:08:28;;;;;;;11.77;10.87;;;32.20;67.00;;;;;;5053236;28;20436;-62
2023/08/18 12:10:57;;;;;;;11.03;10.13;;;32.20;66.10;;;;;;5054029;28;20440;-62
2023/08/18 12:13:24;;;;;;;11.77;10.77;;;32.10;66.10;;;;;;5053298;28;20855;-62
2023/08/18 12:15:50;;;;;;;10.90;9.90;;;32.20;65.60;;;;;;5053448;28;20512;-61
2023/08/18 12:18:18;;;;;;;10.20;9.20;;;32.40;64.80;;;;;;5053812;28;20436;-61
2023/08/18 12:20:45;;;;;;;11.60;10.50;;;32.70;63.60;;;;;;5053547;28;20444;-61
2023/08/18 12:23:11;;;;;;;14.47;10.07;;;32.70;62.60;;;;;;5053413;28;20811;-62
2023/08/18 12:25:40;;;;;;;11.33;10.33;;;32.70;62.60;;;;;;5054040;28;20450;-60
2023/08/18 12:28:06;;;;;;;11.90;10.87;;;32.60;62.70;;;;;;5053305;28;20440;-63
2023/08/18 12:30:33;;;;;;;11.30;10.33;;;32.20;63.00;;;;;;5054629;28;20538;-61
2023/08/18 12:33:00;;;;;;;12.03;11.03;;;31.80;64.30;;;;;;5057000;28;20484;-62
2023/08/18 12:35:27;;;;;;;12.53;11.53;;;31.30;65.80;;;;;;5058591;28;20505;-61